Latest Coastal Weather Observations for Cato Island

IDQ60701

Issued at 5:35 pm EST Saturday 29 November 2014 (issued every 10 minutes, with the page automatically refreshed every 10 minutes)

About coastal observations | Map of coastal stations | Coastal observations for QLD | Marine services | Other Formats
Station Details ID: 200601 Name: CATO ISLAND Lat: -23.25 Lon: 155.54 Height: 6.3 m
Data from the previous 72 hours. | See also: Recent months for locations in Queensland
Date/Time
EST
Temp

°C
Wind Pressure Rain
since 9am
mm
Weather Cloud Vis
km
Sea
Height
m
Swell
Dir
 
Speed
knots
Gust
knots
hPa Trend Height
m
Period
s
Dir
29/05:30pm 24.4 SE 26 30 1013.4 - - - - - - - - -
29/05:00pm 24.7 ESE 24 29 1013.1 - - - - - - - - -
29/04:30pm 24.6 ESE 23 29 1012.7 - - - - - - - - -
29/04:00pm 24.6 SE 24 30 1012.7 - - - - - - - - -
29/03:30pm 24.6 SE 25 28 1012.5 - - - - - - - - -
29/03:00pm 24.9 ESE 25 29 1012.6 - - - - - - - - -
29/02:30pm 24.7 SE 25 29 1012.8 - - - - - - - - -
29/02:00pm 24.8 SE 25 30 1013.0 - - - - - - - - -
29/01:30pm 24.7 SE 25 28 1013.0 - - - - - - - - -
29/01:00pm 24.7 SE 24 27 1013.1 - - - - - - - - -
29/12:30pm 24.7 SE 25 28 1013.4 - - - - - - - - -
29/12:00pm 24.5 SE 24 28 1013.7 - - - - - - - - -
29/11:30am 24.8 ESE 25 30 1013.8 - - - - - - - - -
29/11:00am 24.5 ESE 25 29 1014.1 - - - - - - - - -
29/10:30am 23.3 SE 25 29 1014.3 - - - - - - - - -
29/10:00am 23.0 SE 25 28 1014.5 - - - - - - - - -
29/09:30am 22.0 ESE 24 29 1014.5 - - - - - - - - -
29/09:00am 24.7 ESE 23 27 1014.4 - - - - - - - - -
29/08:30am 24.9 ESE 23 26 1014.6 - - - - - - - - -
29/08:00am 24.8 ESE 22 26 1014.6 - - - - - - - - -
29/07:30am 24.5 ESE 23 27 1014.1 - - - - - - - - -
29/07:00am 24.4 ESE 24 28 1013.9 - - - - - - - - -
29/06:30am 24.8 ESE 24 27 1013.7 - - - - - - - - -
29/06:00am 24.6 ESE 23 27 1013.5 - - - - - - - - -
29/05:30am 24.5 ESE 24 28 1013.2 - - - - - - - - -
29/05:00am 24.6 ESE 22 25 1013.1 - - - - - - - - -
29/04:30am 24.3 ESE 21 24 1013.1 - - - - - - - - -
29/04:00am 24.2 ESE 20 24 1012.9 - - - - - - - - -
29/03:30am 24.5 ESE 21 25 1012.8 - - - - - - - - -
29/03:00am 23.9 ESE 26 30 1012.8 - - - - - - - - -
29/02:30am 24.5 ESE 21 24 1012.9 - - - - - - - - -
29/02:00am 24.1 ESE 22 25 1013.0 - - - - - - - - -
29/01:30am 24.7 ESE 21 23 1013.2 - - - - - - - - -
29/01:00am 24.4 ESE 20 23 1013.4 - - - - - - - - -
29/12:30am 24.6 ESE 20 23 1013.7 - - - - - - - - -
29/12:00am 24.6 ESE 21 25 1013.9 - - - - - - - - -
 
Date/Time
EST
Temp

°C
Wind Pressure Rain
since 9am
mm
Weather Cloud Vis
km
Sea
Height
m
Swell
Dir
 
Speed
knots
Gust
knots
hPa Trend Height
m
Period
s
Dir
28/11:30pm 24.8 ESE 23 26 1014.1 - - - - - - - - -
28/11:00pm 24.7 ESE 22 25 1014.3 - - - - - - - - -
28/10:30pm 24.7 ESE 24 27 1014.4 - - - - - - - - -
28/10:00pm 24.8 ESE 23 27 1014.5 - - - - - - - - -
28/09:30pm 24.9 ESE 22 26 1014.9 - - - - - - - - -
28/09:00pm 24.8 ESE 23 27 1014.8 - - - - - - - - -
28/08:30pm 24.9 ESE 23 27 1014.6 - - - - - - - - -
28/08:00pm 24.9 ESE 22 25 1014.5 - - - - - - - - -
28/07:30pm 24.8 ESE 23 26 1014.5 - - - - - - - - -
28/07:00pm 24.9 ESE 23 28 1014.1 - - - - - - - - -
28/06:30pm 25.1 SE 23 27 1014.2 - - - - - - - - -
28/06:00pm 24.8 ESE 21 25 1014.1 - - - - - - - - -
28/05:30pm 25.1 SE 22 25 1014.0 - - - - - - - - -
28/05:00pm 25.2 SE 21 24 1013.9 - - - - - - - - -
28/04:30pm 25.2 SE 23 26 1013.7 - - - - - - - - -
28/04:00pm 25.0 SE 22 25 1013.5 - - - - - - - - -
28/03:30pm 25.1 SE 21 24 1013.3 - - - - - - - - -
28/03:00pm 25.3 SE 20 24 1013.4 - - - - - - - - -
28/02:30pm 25.5 SE 20 23 1013.6 - - - - - - - - -
28/02:00pm 25.1 SE 19 23 1013.8 - - - - - - - - -
28/01:30pm 25.4 SE 20 23 1013.8 - - - - - - - - -
28/01:00pm 25.5 SE 21 24 1013.9 - - - - - - - - -
28/12:30pm 25.3 SE 20 24 1014.1 - - - - - - - - -
28/12:00pm 25.3 SE 18 23 1014.2 - - - - - - - - -
28/11:30am 25.6 SE 17 19 1014.4 - - - - - - - - -
28/11:00am 25.5 SE 17 19 1014.7 - - - - - - - - -
28/10:30am 25.6 SE 16 19 1014.7 - - - - - - - - -
28/10:00am 25.7 ESE 17 19 1014.8 - - - - - - - - -
28/09:30am 25.4 SE 18 20 1014.6 - - - - - - - - -
28/09:00am 25.2 ESE 17 21 1014.4 - - - - - - - - -
28/08:30am 25.4 ESE 18 20 1014.6 - - - - - - - - -
28/08:00am 25.2 ESE 18 22 1014.4 - - - - - - - - -
28/07:30am 24.8 E 16 18 1014.2 - - - - - - - - -
28/07:00am 25.2 E 17 19 1014.0 - - - - - - - - -
28/06:30am 25.0 ESE 17 19 1013.9 - - - - - - - - -
28/06:00am 25.0 ESE 18 21 1013.8 - - - - - - - - -
28/05:30am 24.9 ESE 18 21 1013.6 - - - - - - - - -
28/05:00am 24.6 ESE 17 19 1013.5 - - - - - - - - -
28/04:30am 24.5 ESE 17 20 1013.2 - - - - - - - - -
28/04:00am 24.6 E 17 20 1012.8 - - - - - - - - -
28/03:30am 24.5 ESE 17 20 1012.7 - - - - - - - - -
28/03:00am 24.5 ESE 17 20 1012.5 - - - - - - - - -
28/02:30am 24.6 ESE 19 22 1012.4 - - - - - - - - -
28/02:00am 24.7 ESE 19 22 1012.5 - - - - - - - - -
28/01:30am 24.7 ESE 20 23 1012.6 - - - - - - - - -
28/01:00am 24.7 ESE 20 24 1012.9 - - - - - - - - -
28/12:30am 24.6 ESE 20 23 1013.1 - - - - - - - - -
28/12:00am 24.6 ESE 21 24 1013.2 - - - - - - - - -
 
Date/Time
EST
Temp

°C
Wind Pressure Rain
since 9am
mm
Weather Cloud Vis
km
Sea
Height
m
Swell
Dir
 
Speed
knots
Gust
knots
hPa Trend Height
m
Period
s
Dir
27/11:30pm 24.7 ESE 21 24 1013.4 - - - - - - - - -
27/11:00pm 24.6 ESE 22 25 1013.7 - - - - - - - - -
27/10:30pm 24.9 ESE 22 25 1014.2 - - - - - - - - -
27/10:00pm 24.8 ESE 22 25 1014.4 - - - - - - - - -
27/09:30pm 24.7 ESE 21 25 1014.5 - - - - - - - - -
27/09:00pm 24.9 ESE 20 23 1014.6 - - - - - - - - -
27/08:30pm 24.9 ESE 20 24 1014.5 - - - - - - - - -
27/08:00pm 24.9 SE 21 23 1014.4 - - - - - - - - -
27/07:30pm 25.0 SE 19 22 1014.4 - - - - - - - - -
27/07:00pm 24.9 SE 19 22 1014.3 - - - - - - - - -
27/06:30pm 25.0 ESE 19 21 1013.8 - - - - - - - - -
27/06:00pm 25.1 SE 18 20 1013.6 - - - - - - - - -
27/05:30pm 25.1 SE 19 22 1013.2 - - - - - - - - -
27/05:00pm 25.3 SE 18 21 1013.0 - - - - - - - - -
27/04:30pm 25.4 SE 18 21 1012.7 - - - - - - - - -
27/04:00pm 25.3 SE 17 19 1012.5 - - - - - - - - -
27/03:30pm 25.5 SE 16 19 1012.6 - - - - - - - - -
27/03:00pm 25.6 SE 15 18 1012.5 - - - - - - - - -
27/02:30pm 25.7 SSE 14 15 1012.7 - - - - - - - - -
27/02:00pm 26.0 SSE 13 15 1012.9 - - - - - - - - -
27/01:30pm 26.1 SE 8 14 1013.2 - - - - - - - - -
27/01:00pm 26.2 SE 11 13 1013.4 - - - - - - - - -
27/12:30pm 26.1 SE 10 13 1013.7 - - - - - - - - -
27/12:00pm 26.0 SE 8 12 1014.0 - - - - - - - - -
27/11:30am 26.0 ESE 11 14 1014.1 - - - - - - - - -
27/11:00am 25.9 ESE 11 13 1014.4 - - - - - - - - -
27/10:30am 26.7 E 11 13 1014.6 - - - - - - - - -
27/10:00am 26.6 E 11 13 1014.7 - - - - - - - - -
27/09:30am 26.2 E 12 14 1014.8 - - - - - - - - -
27/09:00am 26.1 E 13 15 1014.8 - - - - - - - - -
27/08:30am 26.0 E 12 15 1014.8 - - - - - - - - -
27/08:00am 25.6 E 13 15 1014.5 - - - - - - - - -
27/07:30am 25.9 E 13 16 1014.6 - - - - - - - - -
27/07:00am 25.3 E 15 18 1014.4 - - - - - - - - -
27/06:30am 25.0 E 16 19 1014.3 - - - - - - - - -
27/06:00am 24.9 E 14 17 1014.2 - - - - - - - - -
27/05:30am 24.7 E 15 18 1014.1 - - - - - - - - -
27/05:00am 24.4 E 15 18 1014.0 - - - - - - - - -
27/04:30am 24.3 E 16 18 1013.9 - - - - - - - - -
27/04:00am 24.4 ESE 17 20 1013.9 - - - - - - - - -
27/03:30am 24.5 ESE 16 19 1014.0 - - - - - - - - -
27/03:00am 24.5 ESE 18 21 1014.0 - - - - - - - - -
27/02:30am 24.5 SE 17 20 1014.0 - - - - - - - - -
27/02:00am 24.6 SE 17 20 1014.1 - - - - - - - - -
27/01:30am 24.6 ESE 18 21 1014.2 - - - - - - - - -
27/01:00am 24.7 ESE 19 22 1014.4 - - - - - - - - -
27/12:30am 24.9 ESE 19 22 1014.8 - - - - - - - - -
27/12:00am 24.8 ESE 18 22 1015.0 - - - - - - - - -
 
Date/Time
EST
Temp

°C
Wind Pressure Rain
since 9am
mm
Weather Cloud Vis
km
Sea
Height
m
Swell
Dir
 
Speed
knots
Gust
knots
hPa Trend Height
m
Period
s
Dir
26/11:30pm 24.9 ESE 19 22 1015.2 - - - - - - - - -
26/11:00pm 25.0 E 19 23 1015.6 - - - - - - - - -
26/10:30pm 25.0 ESE 18 20 1016.1 - - - - - - - - -
26/10:00pm 25.2 ESE 18 20 1016.4 - - - - - - - - -
26/09:30pm 25.1 ESE 17 19 1016.3 - - - - - - - - -
26/09:00pm 25.3 ESE 17 21 1016.1 - - - - - - - - -
26/08:30pm 25.1 ESE 18 21 1015.9 - - - - - - - - -
26/08:00pm 25.5 E 17 21 1015.7 - - - - - - - - -
26/07:30pm 25.4 ESE 16 18 1015.6 - - - - - - - - -
26/07:00pm 25.3 ESE 14 16 1015.6 - - - - - - - - -
26/06:30pm 25.4 ESE 14 17 1015.2 - - - - - - - - -
26/06:00pm 25.4 E 15 17 1014.7 - - - - - - - - -

Other Formats:

Comma delimited format used in spreadsheet applications
http://www.bom.gov.au/fwo/IDQ60701/IDQ60701.94394.axf

JavaScript Object Notation format (JSON) in row-major order
http://www.bom.gov.au/fwo/IDQ60701/IDQ60701.94394.json